Time;durP1;ratioP1;P1;durP2;ratioP2;P2;SDS_P1;SDS_P2;PMS_P1;PMS_P2;Temp;Humidity;BMP_temperature;BMP_pressure;BME280_temperature;BME280_humidity;BME280_pressure;Samples;Min_cycle;Max_cycle;Signal;HPM_P1;HPM_P2
2023/07/19 00:00:53;;;;;;;4.00;3.60;;;18.10;99.90;;;;;;5033951;28;20457;-75
2023/07/19 00:03:20;;;;;;;9.57;3.47;;;18.00;99.90;;;;;;5033870;28;20453;-75
2023/07/19 00:05:48;;;;;;;13.53;3.90;;;18.00;99.90;;;;;;5036633;28;20893;-75
2023/07/19 00:08:15;;;;;;;11.33;4.17;;;17.90;99.90;;;;;;5037769;28;20460;-75
2023/07/19 00:10:43;;;;;;;10.40;3.90;;;17.90;99.90;;;;;;5054564;28;21092;-75
2023/07/19 00:13:09;;;;;;;11.40;4.23;;;17.90;99.90;;;;;;5039789;28;20515;-75
2023/07/19 00:15:36;;;;;;;6.17;4.53;;;17.90;99.90;;;;;;5043844;28;20472;-75
2023/07/19 00:18:03;;;;;;;5.50;3.97;;;17.90;99.90;;;;;;5049564;28;20464;-75
2023/07/19 00:20:29;;;;;;;8.23;4.37;;;17.90;99.90;;;;;;5053313;28;20494;-75
2023/07/19 00:22:56;;;;;;;4.37;3.73;;;17.90;99.90;;;;;;5044246;28;20453;-75
2023/07/19 00:25:23;;;;;;;7.70;4.00;;;17.90;99.90;;;;;;5052817;28;20553;-75
2023/07/19 00:27:51;;;;;;;7.93;3.80;;;17.90;99.90;;;;;;5033008;28;20461;-75
2023/07/19 00:30:17;;;;;;;6.53;3.97;;;17.90;99.90;;;;;;5036008;28;20500;-74
2023/07/19 00:32:44;;;;;;;5.23;3.80;;;17.90;99.90;;;;;;5033447;28;21165;-75
2023/07/19 00:35:11;;;;;;;8.67;4.50;;;17.90;99.90;;;;;;5033535;28;20469;-75
2023/07/19 00:37:38;;;;;;;6.40;4.40;;;17.90;99.90;;;;;;5032647;28;20961;-75
2023/07/19 00:40:06;;;;;;;5.43;3.97;;;17.90;99.90;;;;;;5033325;28;20454;-75
2023/07/19 00:42:32;;;;;;;8.90;3.50;;;17.90;99.90;;;;;;5033167;28;20453;-75
2023/07/19 00:45:00;;;;;;;8.47;4.10;;;17.90;99.90;;;;;;5033070;28;20558;-75
2023/07/19 00:47:28;;;;;;;5.93;3.90;;;17.90;99.90;;;;;;5031728;28;20596;-75
2023/07/19 00:49:55;;;;;;;10.43;3.90;;;17.80;99.90;;;;;;5032814;28;20485;-75
2023/07/19 00:52:22;;;;;;;12.27;4.80;;;17.80;99.90;;;;;;5032818;28;20868;-75
2023/07/19 00:54:49;;;;;;;11.33;4.10;;;17.80;99.90;;;;;;5033063;28;20965;-75
2023/07/19 00:57:16;;;;;;;4.63;3.40;;;17.80;99.90;;;;;;5032923;28;20531;-75
2023/07/19 00:59:43;;;;;;;3.87;3.43;;;17.80;99.90;;;;;;5032497;28;20432;-75
2023/07/19 01:02:13;;;;;;;8.37;4.10;;;17.70;99.90;;;;;;5032974;28;20453;-75
2023/07/19 01:04:40;;;;;;;6.00;3.60;;;17.70;99.90;;;;;;5032346;28;20530;-75
2023/07/19 01:07:07;;;;;;;4.90;3.50;;;17.70;99.90;;;;;;5032069;28;20457;-75
2023/07/19 01:09:35;;;;;;;7.60;3.60;;;17.70;99.90;;;;;;5032479;28;20854;-75
2023/07/19 01:12:02;;;;;;;8.13;3.30;;;17.60;99.90;;;;;;5032900;28;20989;-75
2023/07/19 01:14:28;;;;;;;4.73;4.10;;;17.40;99.90;;;;;;5032325;28;20972;-75
2023/07/19 01:16:55;;;;;;;5.60;3.80;;;17.20;99.90;;;;;;5032367;28;20444;-75
2023/07/19 01:19:23;;;;;;;8.57;4.00;;;17.00;99.90;;;;;;5032104;28;20440;-76
2023/07/19 01:21:50;;;;;;;5.80;3.67;;;16.80;99.90;;;;;;5032433;28;20457;-76
2023/07/19 01:24:18;;;;;;;5.70;4.07;;;16.70;99.90;;;;;;5032133;28;20480;-76
2023/07/19 01:26:45;;;;;;;5.27;3.80;;;16.70;99.90;;;;;;5031830;28;20440;-75
2023/07/19 01:29:12;;;;;;;3.93;3.43;;;16.70;99.90;;;;;;5032034;28;20521;-75
2023/07/19 01:31:38;;;;;;;7.33;4.00;;;16.70;99.90;;;;;;5036135;28;20482;-76
2023/07/19 01:34:05;;;;;;;10.23;4.07;;;16.80;99.90;;;;;;5031809;28;20562;-75
2023/07/19 01:36:32;;;;;;;8.00;4.07;;;16.80;99.90;;;;;;5032026;28;20474;-75
2023/07/19 01:38:58;;;;;;;8.13;3.40;;;16.80;99.90;;;;;;5031664;28;20523;-75
2023/07/19 01:41:26;;;;;;;8.47;4.47;;;16.80;99.90;;;;;;5032353;28;20869;-75
2023/07/19 01:43:53;;;;;;;5.37;4.13;;;16.80;99.90;;;;;;5024158;28;20516;-76
2023/07/19 01:46:20;;;;;;;7.13;4.37;;;16.80;99.90;;;;;;5031936;28;20420;-76
2023/07/19 01:48:46;;;;;;;6.57;3.93;;;16.80;99.90;;;;;;5031451;28;20449;-76
2023/07/19 01:51:13;;;;;;;7.70;4.20;;;16.80;99.90;;;;;;5032154;28;20464;-76
2023/07/19 01:53:40;;;;;;;10.20;3.83;;;16.80;99.90;;;;;;5031475;28;20989;-76
2023/07/19 01:56:06;;;;;;;10.23;3.80;;;16.80;99.90;;;;;;5031664;28;20531;-76
2023/07/19 01:58:34;;;;;;;6.07;4.27;;;16.80;99.90;;;;;;5031367;28;20522;-76
2023/07/19 02:01:01;;;;;;;9.10;4.00;;;16.70;99.90;;;;;;5030898;28;20450;-75
2023/07/19 02:03:27;;;;;;;8.13;4.47;;;16.70;99.90;;;;;;5031650;28;20508;-76
2023/07/19 02:05:58;;;;;;;11.97;4.50;;;16.70;99.90;;;;;;5031426;28;20450;-76
2023/07/19 02:08:25;;;;;;;7.50;4.40;;;16.60;99.90;;;;;;5031472;28;20428;-76
2023/07/19 02:10:52;;;;;;;10.73;5.03;;;16.60;99.90;;;;;;5031236;28;20901;-76
2023/07/19 02:13:18;;;;;;;13.00;4.33;;;16.50;99.90;;;;;;5031504;28;20486;-76
2023/07/19 02:15:47;;;;;;;7.93;4.00;;;16.50;99.90;;;;;;5031446;28;20469;-75
2023/07/19 02:18:14;;;;;;;4.70;3.80;;;16.50;99.90;;;;;;5031249;28;20886;-76
2023/07/19 02:20:45;;;;;;;5.57;4.30;;;16.50;99.90;;;;;;5031332;28;20496;-76
2023/07/19 02:23:12;;;;;;;5.00;3.80;;;16.70;99.90;;;;;;5031320;28;20461;-76
2023/07/19 02:25:40;;;;;;;5.73;4.30;;;16.50;99.90;;;;;;5031042;28;20478;-76
2023/07/19 02:28:07;;;;;;;7.70;3.90;;;16.50;99.90;;;;;;5030983;28;20427;-76
2023/07/19 02:30:34;;;;;;;6.20;4.73;;;16.50;99.90;;;;;;5035135;28;20497;-75
2023/07/19 02:33:02;;;;;;;8.20;4.67;;;16.60;99.90;;;;;;5031424;28;20453;-76
2023/07/19 02:35:28;;;;;;;6.53;4.10;;;16.60;99.90;;;;;;5030951;28;20465;-75
2023/07/19 02:37:55;;;;;;;10.80;4.13;;;16.50;99.90;;;;;;5031118;28;20454;-76
2023/07/19 02:40:21;;;;;;;8.20;4.73;;;16.50;99.90;;;;;;5031061;28;20497;-76
2023/07/19 02:42:48;;;;;;;16.93;4.50;;;16.40;99.90;;;;;;5031147;28;20938;-76
2023/07/19 02:45:15;;;;;;;5.20;4.50;;;16.30;99.90;;;;;;5031276;28;20481;-76
2023/07/19 02:47:41;;;;;;;7.30;4.73;;;16.10;99.90;;;;;;5030092;28;21149;-76
2023/07/19 02:50:10;;;;;;;9.80;5.17;;;16.00;99.90;;;;;;5030882;28;20489;-76
2023/07/19 02:52:37;;;;;;;10.07;4.50;;;16.00;99.90;;;;;;5030921;28;20488;-76
2023/07/19 02:55:04;;;;;;;10.90;5.03;;;15.90;99.90;;;;;;5030702;28;20501;-76
2023/07/19 02:57:31;;;;;;;7.10;4.33;;;15.80;99.90;;;;;;5030718;28;20435;-76
2023/07/19 02:59:57;;;;;;;9.13;5.20;;;15.70;99.90;;;;;;5030760;28;20454;-76
2023/07/19 03:02:24;;;;;;;9.70;4.90;;;15.70;99.90;;;;;;5030860;28;20453;-76
2023/07/19 03:04:51;;;;;;;6.17;4.67;;;15.60;99.90;;;;;;5030666;28;20496;-76
2023/07/19 03:07:19;;;;;;;5.90;4.50;;;15.60;99.90;;;;;;5030407;28;20424;-75
2023/07/19 03:09:45;;;;;;;7.63;4.93;;;15.60;99.90;;;;;;5030762;28;20464;-76
2023/07/19 03:12:12;;;;;;;8.07;4.93;;;15.60;99.90;;;;;;5033763;28;20889;-76
2023/07/19 03:14:39;;;;;;;6.37;4.53;;;15.60;99.90;;;;;;5034802;28;20448;-76
2023/07/19 03:17:06;;;;;;;6.70;4.77;;;15.60;99.90;;;;;;5034627;28;20465;-76
2023/07/19 03:19:32;;;;;;;8.50;5.43;;;15.60;99.90;;;;;;5034386;28;20440;-76
2023/07/19 03:21:59;;;;;;;10.43;5.37;;;15.60;99.90;;;;;;5034693;28;20507;-76
2023/07/19 03:24:27;;;;;;;7.90;4.90;;;15.60;99.90;;;;;;5034566;28;21027;-76
2023/07/19 03:26:54;;;;;;;9.50;3.90;;;15.60;99.90;;;;;;5033975;28;20478;-76
2023/07/19 03:29:21;;;;;;;8.13;5.37;;;15.60;99.90;;;;;;5034276;28;20514;-76
2023/07/19 03:31:47;;;;;;;5.80;4.50;;;15.60;99.90;;;;;;5039388;28;20517;-76
2023/07/19 03:34:15;;;;;;;5.20;4.53;;;15.70;99.90;;;;;;5033818;28;20475;-76
2023/07/19 03:36:41;;;;;;;4.93;4.13;;;15.70;99.90;;;;;;5034264;28;20453;-76
2023/07/19 03:39:08;;;;;;;8.83;4.37;;;15.70;99.90;;;;;;5033762;28;20453;-76
2023/07/19 03:41:36;;;;;;;5.60;4.37;;;15.70;99.90;;;;;;5033997;28;20906;-76
2023/07/19 03:44:02;;;;;;;6.73;4.60;;;15.80;99.90;;;;;;5026386;28;20424;-76
2023/07/19 03:46:29;;;;;;;11.03;4.37;;;15.70;99.90;;;;;;5033999;28;20457;-76
2023/07/19 03:48:56;;;;;;;10.60;5.03;;;15.70;99.90;;;;;;5033746;28;20443;-76
2023/07/19 03:51:22;;;;;;;6.53;4.70;;;15.70;99.90;;;;;;5034106;28;21024;-76
2023/07/19 03:53:49;;;;;;;6.73;4.50;;;15.60;99.90;;;;;;5033900;28;20460;-76
2023/07/19 03:56:16;;;;;;;6.63;4.30;;;15.60;99.90;;;;;;5033926;28;20505;-76
2023/07/19 03:58:48;;;;;;;9.37;4.90;;;15.50;99.90;;;;;;5033638;28;20432;-76
2023/07/19 04:01:15;;;;;;;7.03;4.43;;;15.60;99.90;;;;;;5034292;28;21018;-76
2023/07/19 04:03:42;;;;;;;7.93;4.67;;;15.60;99.90;;;;;;5033969;28;20444;-76
2023/07/19 04:06:09;;;;;;;7.20;4.57;;;15.60;99.90;;;;;;5033482;28;20484;-76
2023/07/19 04:08:36;;;;;;;7.97;4.60;;;15.70;99.90;;;;;;5033776;28;20432;-76
2023/07/19 04:11:02;;;;;;;6.97;4.27;;;15.70;99.90;;;;;;5033935;28;20533;-76
2023/07/19 04:13:29;;;;;;;7.77;4.70;;;15.70;99.90;;;;;;5033971;28;20486;-76
2023/07/19 04:15:57;;;;;;;6.17;4.40;;;15.80;99.90;;;;;;5033646;28;20451;-76
2023/07/19 04:18:25;;;;;;;7.17;4.70;;;15.80;99.90;;;;;;5033502;28;20428;-75
2023/07/19 04:20:56;;;;;;;5.37;4.40;;;15.80;99.90;;;;;;5033523;28;20523;-74
2023/07/19 04:23:23;;;;;;;9.57;4.00;;;15.90;99.90;;;;;;5032728;28;20490;-74
2023/07/19 04:25:50;;;;;;;4.87;4.10;;;15.90;99.90;;;;;;5033201;28;20516;-74
2023/07/19 04:28:18;;;;;;;5.90;4.33;;;15.90;99.90;;;;;;5033569;28;20518;-74
2023/07/19 04:30:45;;;;;;;5.07;4.23;;;15.90;99.90;;;;;;5038702;28;20546;-74
2023/07/19 04:33:14;;;;;;;5.70;3.57;;;15.90;99.90;;;;;;5033417;28;20458;-73
2023/07/19 04:35:41;;;;;;;5.90;3.90;;;16.00;99.90;;;;;;5032971;28;20506;-72
2023/07/19 04:38:07;;;;;;;8.03;4.33;;;16.10;99.90;;;;;;5033176;28;20499;-72
2023/07/19 04:40:34;;;;;;;8.80;4.23;;;16.30;99.90;;;;;;5033136;28;20445;-73
2023/07/19 04:43:01;;;;;;;6.43;4.03;;;16.40;99.90;;;;;;5033350;28;20428;-73
2023/07/19 04:45:30;;;;;;;5.07;3.90;;;16.50;99.90;;;;;;5032676;28;20447;-73
2023/07/19 04:47:57;;;;;;;10.10;4.63;;;16.70;99.90;;;;;;5032977;28;20462;-72
2023/07/19 04:50:25;;;;;;;5.63;4.30;;;16.80;99.90;;;;;;5032886;28;20495;-72
2023/07/19 04:52:53;;;;;;;5.90;4.50;;;16.90;99.90;;;;;;5033004;28;20489;-72
2023/07/19 04:55:20;;;;;;;12.07;4.43;;;17.00;99.90;;;;;;5032872;28;20531;-73
2023/07/19 04:57:47;;;;;;;6.33;4.60;;;17.00;99.90;;;;;;5032588;28;20432;-73
2023/07/19 05:00:15;;;;;;;7.70;4.67;;;17.20;99.90;;;;;;5032167;28;20440;-73
2023/07/19 05:02:42;;;;;;;6.10;4.50;;;17.40;99.90;;;;;;5032677;28;20480;-74
2023/07/19 05:05:12;;;;;;;8.20;4.53;;;17.50;99.90;;;;;;5031932;28;20477;-73
2023/07/19 05:07:40;;;;;;;7.83;4.50;;;17.80;99.90;;;;;;5032142;28;20443;-72
2023/07/19 05:10:08;;;;;;;6.17;3.90;;;17.80;99.90;;;;;;5032296;28;20980;-73
2023/07/19 05:12:35;;;;;;;7.93;4.77;;;17.90;99.90;;;;;;5032072;28;20453;-73
2023/07/19 05:15:02;;;;;;;7.73;4.50;;;18.00;99.90;;;;;;5032185;28;20484;-73
2023/07/19 05:17:28;;;;;;;14.40;5.50;;;18.30;99.90;;;;;;5031118;28;20462;-72
2023/07/19 05:19:55;;;;;;;5.40;4.60;;;18.50;99.90;;;;;;5029970;28;20453;-72
2023/07/19 05:22:21;;;;;;;7.97;4.47;;;18.70;99.90;;;;;;5031510;28;20424;-70
2023/07/19 05:24:50;;;;;;;7.47;4.33;;;18.90;99.90;;;;;;5030926;28;20473;-70
2023/07/19 05:27:17;;;;;;;10.63;4.67;;;19.00;99.90;;;;;;5031756;28;20453;-71
2023/07/19 05:29:43;;;;;;;6.23;4.27;;;19.00;99.90;;;;;;5031869;28;20469;-70
2023/07/19 05:32:10;;;;;;;8.93;4.50;;;19.10;99.90;;;;;;5030725;28;20521;-72
2023/07/19 05:34:37;;;;;;;7.67;5.17;;;18.90;99.90;;;;;;5031042;28;20472;-73
2023/07/19 05:37:06;;;;;;;7.60;4.90;;;18.80;99.90;;;;;;5030433;28;20454;-72
2023/07/19 05:39:34;;;;;;;11.60;5.00;;;18.70;99.90;;;;;;5031663;28;20472;-73
2023/07/19 05:42:02;;;;;;;8.00;4.90;;;18.70;99.90;;;;;;5032226;28;20499;-72
2023/07/19 05:44:29;;;;;;;8.80;4.23;;;18.70;99.90;;;;;;5031838;28;21017;-73
2023/07/19 05:46:55;;;;;;;11.77;5.40;;;18.80;99.90;;;;;;5031738;28;20523;-73
2023/07/19 05:49:22;;;;;;;7.80;4.53;;;18.90;99.90;;;;;;5031426;28;20453;-73
2023/07/19 05:51:50;;;;;;;10.00;4.50;;;18.90;99.90;;;;;;5031796;28;20539;-73
2023/07/19 05:54:16;;;;;;;9.40;4.83;;;19.10;99.90;;;;;;5031294;28;20824;-72
2023/07/19 05:56:43;;;;;;;7.20;4.37;;;19.20;99.90;;;;;;5031361;28;20424;-73
2023/07/19 05:59:11;;;;;;;7.77;4.40;;;19.30;99.90;;;;;;5030979;28;20827;-72
2023/07/19 06:01:38;;;;;;;6.57;4.10;;;19.30;99.90;;;;;;5031313;28;20511;-73
2023/07/19 06:04:05;;;;;;;7.50;4.40;;;19.30;99.90;;;;;;5031558;28;20836;-73
2023/07/19 06:06:33;;;;;;;11.53;4.03;;;19.40;99.90;;;;;;5030494;28;20449;-72
2023/07/19 06:09:02;;;;;;;8.53;3.87;;;19.50;99.90;;;;;;5020760;28;20950;-72
2023/07/19 06:11:29;;;;;;;10.67;4.10;;;19.70;99.90;;;;;;5031069;28;20490;-73
2023/07/19 06:13:56;;;;;;;7.10;4.70;;;19.90;99.90;;;;;;5030533;28;20805;-73
2023/07/19 06:16:25;;;;;;;8.53;4.23;;;20.20;99.90;;;;;;5031576;28;20479;-72
2023/07/19 06:18:51;;;;;;;7.63;4.00;;;20.40;99.90;;;;;;5031108;28;20477;-73
2023/07/19 06:21:18;;;;;;;15.73;4.70;;;20.60;99.90;;;;;;5031305;28;20566;-73
2023/07/19 06:23:45;;;;;;;6.53;4.60;;;20.80;99.90;;;;;;5030739;28;20451;-72
2023/07/19 06:26:12;;;;;;;6.67;4.20;;;20.70;99.90;;;;;;5030665;28;20881;-72
2023/07/19 06:28:39;;;;;;;10.43;4.20;;;20.70;99.90;;;;;;5030676;28;20462;-73
2023/07/19 06:31:06;;;;;;;8.57;4.60;;;20.60;99.90;;;;;;5038148;28;20484;-72
2023/07/19 06:33:34;;;;;;;8.70;4.47;;;20.50;99.90;;;;;;5031500;28;20901;-73
2023/07/19 06:36:00;;;;;;;7.57;4.20;;;20.60;99.90;;;;;;5030641;28;20972;-72
2023/07/19 06:38:28;;;;;;;5.60;4.23;;;20.80;99.90;;;;;;5030571;28;20453;-73
2023/07/19 06:41:01;;;;;;;11.13;4.57;;;21.10;99.90;;;;;;5030107;28;21020;-72
2023/07/19 06:43:28;;;;;;;10.37;5.07;;;21.30;99.90;;;;;;5030964;28;20457;-73
2023/07/19 06:45:54;;;;;;;10.17;4.77;;;21.50;99.90;;;;;;5030320;28;20481;-73
2023/07/19 06:48:21;;;;;;;6.83;4.13;;;21.60;99.90;;;;;;5031104;28;20452;-72
2023/07/19 06:50:50;;;;;;;6.60;4.20;;;21.80;99.90;;;;;;5030379;28;20519;-70
2023/07/19 06:53:17;;;;;;;10.03;4.53;;;21.80;99.90;;;;;;5030123;28;20459;-71
2023/07/19 06:55:44;;;;;;;8.63;4.20;;;22.10;99.90;;;;;;5026699;28;20473;-70
2023/07/19 06:58:10;;;;;;;5.20;4.03;;;22.20;99.90;;;;;;5031023;28;20499;-71
2023/07/19 07:00:37;;;;;;;8.63;4.10;;;22.40;99.90;;;;;;5030555;28;20445;-71
2023/07/19 07:03:04;;;;;;;14.23;4.60;;;22.50;99.90;;;;;;5030545;28;20456;-71
2023/07/19 07:05:31;;;;;;;11.30;4.13;;;22.80;99.90;;;;;;5030544;28;21007;-70
2023/07/19 07:07:59;;;;;;;6.67;4.13;;;23.10;99.90;;;;;;5029328;28;20462;-70
2023/07/19 07:10:25;;;;;;;10.80;4.27;;;23.30;99.90;;;;;;5030035;28;20445;-71
2023/07/19 07:12:52;;;;;;;6.03;4.10;;;23.50;99.90;;;;;;5030400;28;21071;-70
2023/07/19 07:15:19;;;;;;;5.73;3.90;;;23.80;99.90;;;;;;5030644;28;20474;-70
2023/07/19 07:17:47;;;;;;;8.00;3.80;;;24.00;99.90;;;;;;5030544;28;20453;-71
2023/07/19 07:20:14;;;;;;;14.00;4.63;;;24.30;99.90;;;;;;5029772;28;20507;-71
2023/07/19 07:22:41;;;;;;;6.97;4.13;;;24.50;99.90;;;;;;5030559;28;20453;-71
2023/07/19 07:25:09;;;;;;;9.93;3.97;;;24.70;99.90;;;;;;5030498;28;20524;-70
2023/07/19 07:27:36;;;;;;;5.37;3.77;;;24.80;99.90;;;;;;5030265;28;20878;-70
2023/07/19 07:30:02;;;;;;;6.83;3.80;;;24.90;99.90;;;;;;5029849;28;20515;-69
2023/07/19 07:32:29;;;;;;;6.93;3.87;;;25.00;99.90;;;;;;5035924;28;20504;-69
2023/07/19 07:34:55;;;;;;;6.30;4.17;;;25.00;99.90;;;;;;5029778;28;20538;-69
2023/07/19 07:37:22;;;;;;;8.40;3.90;;;25.10;99.90;;;;;;5030222;28;20868;-69
2023/07/19 07:39:49;;;;;;;7.70;4.57;;;25.20;99.90;;;;;;5029598;28;20511;-69
2023/07/19 07:42:17;;;;;;;16.33;3.57;;;25.40;99.90;;;;;;5030114;28;20454;-70
2023/07/19 07:44:43;;;;;;;6.10;3.70;;;25.50;99.90;;;;;;5029760;28;20532;-70
2023/07/19 07:47:10;;;;;;;5.53;4.43;;;25.60;99.90;;;;;;5029848;28;20465;-69
2023/07/19 07:49:37;;;;;;;5.67;3.77;;;25.70;99.90;;;;;;5030079;28;20450;-70
2023/07/19 07:52:04;;;;;;;4.93;3.63;;;25.60;99.90;;;;;;5029985;28;20481;-71
2023/07/19 07:54:31;;;;;;;10.90;3.77;;;25.60;99.90;;;;;;5029078;28;20530;-69
2023/07/19 07:56:57;;;;;;;6.07;4.27;;;25.70;99.90;;;;;;5030067;28;20473;-69
2023/07/19 07:59:25;;;;;;;9.13;4.33;;;25.60;99.90;;;;;;5032961;28;20953;-69
2023/07/19 08:01:52;;;;;;;4.37;3.97;;;25.70;99.90;;;;;;5031668;28;21023;-69
2023/07/19 08:04:18;;;;;;;6.20;3.80;;;25.70;99.90;;;;;;5032922;28;20527;-69
2023/07/19 08:06:45;;;;;;;7.03;3.43;;;25.90;99.90;;;;;;5032102;28;20452;-68
2023/07/19 08:09:12;;;;;;;6.80;3.80;;;26.20;99.90;;;;;;5031640;28;20461;-69
2023/07/19 08:11:38;;;;;;;9.70;3.60;;;26.40;99.90;;;;;;5032316;28;20488;-69
2023/07/19 08:14:05;;;;;;;6.73;3.57;;;26.60;99.90;;;;;;5032591;28;20847;-68
2023/07/19 08:16:33;;;;;;;13.90;4.23;;;26.80;99.90;;;;;;5032207;28;20499;-69
2023/07/19 08:18:59;;;;;;;6.23;3.30;;;26.80;99.90;;;;;;5032498;28;20465;-69
2023/07/19 08:21:26;;;;;;;6.80;3.80;;;27.00;99.90;;;;;;5031728;28;20449;-69
2023/07/19 08:23:55;;;;;;;6.87;3.20;;;27.00;99.90;;;;;;5032464;28;20883;-69
2023/07/19 08:26:22;;;;;;;6.50;3.50;;;26.80;99.90;;;;;;5032362;28;20486;-69
2023/07/19 08:28:49;;;;;;;4.30;3.10;;;26.40;99.90;;;;;;5032363;28;20446;-70
2023/07/19 08:31:16;;;;;;;4.87;3.47;;;26.20;99.90;;;;;;5037528;28;20532;-69
2023/07/19 08:33:44;;;;;;;7.23;3.47;;;26.20;99.90;;;;;;5031749;28;20934;-70
2023/07/19 08:36:10;;;;;;;11.23;3.53;;;26.50;99.90;;;;;;5031704;28;20473;-68
2023/07/19 08:38:37;;;;;;;3.60;3.30;;;26.60;99.90;;;;;;5031841;28;20639;-68
2023/07/19 08:41:05;;;;;;;6.83;3.10;;;26.90;99.90;;;;;;5031928;28;20487;-67
2023/07/19 08:43:34;;;;;;;6.20;3.40;;;27.20;99.90;;;;;;5032297;28;20834;-68
2023/07/19 08:46:00;;;;;;;4.97;3.30;;;27.20;99.90;;;;;;5032083;28;20476;-68
2023/07/19 08:48:27;;;;;;;6.33;3.67;;;27.30;99.90;;;;;;5031566;28;20499;-68
2023/07/19 08:50:57;;;;;;;8.30;3.90;;;27.50;99.90;;;;;;5031665;28;20540;-69
2023/07/19 08:53:26;;;;;;;12.13;3.40;;;27.70;99.90;;;;;;5031229;28;20567;-68
2023/07/19 08:55:54;;;;;;;10.70;3.80;;;28.00;99.90;;;;;;5031701;28;20473;-69
2023/07/19 08:58:21;;;;;;;8.63;3.60;;;28.20;99.90;;;;;;5031648;28;20449;-68
2023/07/19 09:00:48;;;;;;;7.00;3.33;;;28.00;99.90;;;;;;5031761;28;20514;-68
2023/07/19 09:03:15;;;;;;;5.43;3.20;;;28.10;99.90;;;;;;5031417;28;20453;-68
2023/07/19 09:05:42;;;;;;;11.23;3.17;;;28.30;99.90;;;;;;5031909;28;20477;-70
2023/07/19 09:08:10;;;;;;;4.03;2.90;;;28.60;99.90;;;;;;5031594;28;20449;-70
2023/07/19 09:10:37;;;;;;;4.17;2.90;;;28.70;99.90;;;;;;5031506;28;20508;-70
2023/07/19 09:13:05;;;;;;;6.07;3.40;;;28.90;99.90;;;;;;5031752;28;20583;-68
2023/07/19 09:15:34;;;;;;;7.07;3.17;;;29.20;99.90;;;;;;5031115;28;20501;-68
2023/07/19 09:18:03;;;;;;;4.20;3.20;;;29.10;99.90;;;;;;5030882;28;20950;-68
2023/07/19 09:20:30;;;;;;;6.40;3.13;;;29.00;99.90;;;;;;5030722;28;20464;-68
2023/07/19 09:22:58;;;;;;;4.90;3.50;;;28.60;99.90;;;;;;5031227;28;21052;-68
2023/07/19 09:25:26;;;;;;;11.77;3.40;;;28.40;99.90;;;;;;5031290;28;21052;-68
2023/07/19 09:27:53;;;;;;;5.10;2.87;;;28.50;99.90;;;;;;5031208;28;20449;-68
2023/07/19 09:30:20;;;;;;;5.83;3.20;;;28.40;99.90;;;;;;5030890;28;20471;-68
2023/07/19 09:32:59;;;;;;;3.87;2.77;;;28.20;99.90;;;;;;5031027;28;20911;-68
2023/07/19 09:35:28;;;;;;;4.43;3.40;;;27.80;99.90;;;;;;5031002;28;21012;-69
2023/07/19 09:37:55;;;;;;;16.13;3.27;;;27.70;99.90;;;;;;5030606;28;20891;-69
2023/07/19 09:40:22;;;;;;;4.47;2.80;;;27.60;99.90;;;;;;5030763;28;20445;-69
2023/07/19 09:42:50;;;;;;;6.40;2.57;;;27.60;99.90;;;;;;5031315;28;20499;-69
2023/07/19 09:45:18;;;;;;;4.73;2.77;;;27.60;99.90;;;;;;5030995;28;20580;-71
2023/07/19 09:47:46;;;;;;;2.70;2.50;;;27.60;99.90;;;;;;5030864;28;21004;-73
2023/07/19 09:50:13;;;;;;;4.00;2.80;;;27.80;99.90;;;;;;5030413;28;21112;-71
2023/07/19 09:52:40;;;;;;;4.43;2.70;;;28.20;99.90;;;;;;5030559;28;20481;-72
2023/07/19 09:55:07;;;;;;;8.37;4.90;;;28.40;99.90;;;;;;5030258;28;20473;-71
2023/07/19 09:57:38;;;;;;;23.90;17.55;;;28.60;99.90;;;;;;5029808;28;20445;-73
2023/07/19 10:00:11;;;;;;;6.77;3.47;;;28.70;99.90;;;;;;5031051;28;20217;-73
2023/07/19 10:02:38;;;;;;;2.53;2.33;;;28.90;99.50;;;;;;5031550;28;20511;-73
2023/07/19 10:05:08;;;;;;;5.63;2.40;;;29.20;99.40;;;;;;5031019;28;20481;-73
2023/07/19 10:07:36;;;;;;;3.77;2.70;;;29.10;98.00;;;;;;5030747;28;21202;-73
2023/07/19 10:10:05;;;;;;;4.07;2.40;;;28.90;99.30;;;;;;5031227;28;20937;-72
2023/07/19 10:12:32;;;;;;;2.97;2.50;;;28.90;98.80;;;;;;5031154;28;20841;-73
2023/07/19 10:15:02;;;;;;;6.00;2.33;;;28.90;97.90;;;;;;5031162;28;20472;-73
2023/07/19 10:17:38;;;;;;;3.60;2.40;;;28.80;97.50;;;;;;5030710;28;20465;-73
2023/07/19 10:20:10;;;;;;;7.50;2.60;;;28.60;97.40;;;;;;5030587;28;20550;-72
2023/07/19 10:22:50;;;;;;;4.07;2.50;;;28.40;96.80;;;;;;5030539;28;20501;-72
2023/07/19 10:25:21;;;;;;;5.70;2.50;;;28.30;97.40;;;;;;5030467;28;20575;-72
2023/07/19 10:27:57;;;;;;;7.10;3.00;;;28.60;98.40;;;;;;5030530;28;20540;-71
2023/07/19 10:30:45;;;;;;;5.63;2.33;;;28.70;97.50;;;;;;5030199;28;20542;-71
2023/07/19 10:33:13;;;;;;;3.70;3.17;;;28.70;97.60;;;;;;5030759;28;20500;-73
2023/07/19 10:35:40;;;;;;;6.20;2.60;;;28.50;97.20;;;;;;5030660;28;20469;-73
2023/07/19 10:38:13;;;;;;;5.40;2.50;;;28.30;97.70;;;;;;5030752;28;20536;-73
2023/07/19 10:40:40;;;;;;;4.23;2.50;;;28.40;97.70;;;;;;5030455;28;20450;-73
2023/07/19 10:43:06;;;;;;;10.13;2.87;;;28.60;98.10;;;;;;5030656;28;20869;-72
2023/07/19 10:45:33;;;;;;;5.10;2.30;;;28.60;97.80;;;;;;5030645;28;20527;-73
2023/07/19 10:48:00;;;;;;;4.03;2.70;;;28.70;98.10;;;;;;5030794;28;20511;-73
2023/07/19 10:50:28;;;;;;;5.87;2.80;;;29.10;98.70;;;;;;5030936;28;20461;-73
2023/07/19 10:52:54;;;;;;;9.90;3.00;;;29.70;97.40;;;;;;5030357;28;20485;-72
2023/07/19 10:55:21;;;;;;;3.57;2.47;;;29.90;96.80;;;;;;5030186;28;20465;-73
2023/07/19 10:57:48;;;;;;;3.83;2.87;;;29.60;96.50;;;;;;5029874;28;20457;-72
2023/07/19 11:00:15;;;;;;;6.03;2.57;;;29.50;96.80;;;;;;5030165;28;20458;-72
2023/07/19 11:02:42;;;;;;;4.80;2.40;;;29.50;96.80;;;;;;5030962;28;20457;-73
2023/07/19 11:05:10;;;;;;;5.10;3.43;;;29.20;96.90;;;;;;5030818;28;20469;-73
2023/07/19 11:07:38;;;;;;;3.47;3.17;;;29.10;97.40;;;;;;5030467;28;21025;-73
2023/07/19 11:10:05;;;;;;;6.60;3.10;;;28.90;97.20;;;;;;5030323;28;20499;-73
2023/07/19 11:12:32;;;;;;;6.53;3.17;;;28.70;97.50;;;;;;5029762;28;20993;-73
2023/07/19 11:15:01;;;;;;;8.40;2.90;;;28.60;97.90;;;;;;5030314;28;20469;-73
2023/07/19 11:17:29;;;;;;;3.33;3.03;;;28.40;97.80;;;;;;5029541;28;20457;-73
2023/07/19 11:19:56;;;;;;;5.87;2.90;;;28.10;97.90;;;;;;5030299;28;20507;-73
2023/07/19 11:22:25;;;;;;;7.33;2.50;;;28.00;98.20;;;;;;5029804;28;20516;-73
2023/07/19 11:24:54;;;;;;;10.10;3.10;;;27.90;98.00;;;;;;5030335;28;20473;-73
2023/07/19 11:27:33;;;;;;;6.80;3.53;;;27.70;98.70;;;;;;5030557;28;20892;-73
2023/07/19 11:30:00;;;;;;;4.83;3.03;;;27.50;98.80;;;;;;5029588;28;20983;-73
2023/07/19 11:32:27;;;;;;;11.03;3.20;;;27.40;99.20;;;;;;5033030;28;20481;-73
2023/07/19 11:34:56;;;;;;;13.30;3.30;;;27.20;99.20;;;;;;5034492;28;20485;-73
2023/07/19 11:37:25;;;;;;;6.00;2.70;;;27.20;99.40;;;;;;5033644;28;20914;-73
2023/07/19 11:39:57;;;;;;;3.60;2.70;;;27.20;99.70;;;;;;5033602;28;20504;-73
2023/07/19 11:42:41;;;;;;;5.70;3.03;;;27.20;99.40;;;;;;5034166;28;20552;-73
2023/07/19 11:45:12;;;;;;;6.80;2.83;;;27.30;99.80;;;;;;5034338;28;20477;-73
2023/07/19 11:47:40;;;;;;;5.70;3.17;;;27.20;99.70;;;;;;5033987;28;20453;-73
2023/07/19 11:50:08;;;;;;;10.50;2.97;;;27.30;99.50;;;;;;5034043;28;20490;-72
2023/07/19 11:52:46;;;;;;;2.67;2.43;;;27.30;99.40;;;;;;5033621;28;20984;-73
2023/07/19 11:55:15;;;;;;;16.90;3.67;;;27.10;99.30;;;;;;5034517;28;20575;-73
2023/07/19 11:57:42;;;;;;;6.90;3.83;;;27.20;99.30;;;;;;5034193;28;20452;-73
2023/07/19 12:00:11;;;;;;;11.93;3.00;;;27.30;99.80;;;;;;5033714;28;20457;-72
2023/07/19 12:02:38;;;;;;;2.97;2.60;;;27.50;99.60;;;;;;5033301;28;20488;-71
2023/07/19 12:05:06;;;;;;;8.53;2.67;;;27.60;99.40;;;;;;5033703;28;20500;-72
2023/07/19 12:07:33;;;;;;;8.27;2.90;;;27.70;98.90;;;;;;5033363;28;20449;-72
2023/07/19 12:10:03;;;;;;;2.67;2.47;;;27.90;99.90;;;;;;5033889;28;20461;-71
2023/07/19 12:12:31;;;;;;;6.63;3.33;;;28.10;99.30;;;;;;5033234;28;20507;-72
2023/07/19 12:15:00;;;;;;;5.47;3.10;;;28.30;98.70;;;;;;5033555;28;20532;-72
2023/07/19 12:17:27;;;;;;;4.90;2.67;;;28.50;99.10;;;;;;5033200;28;20461;-71
2023/07/19 12:19:54;;;;;;;6.40;2.90;;;28.80;98.20;;;;;;5033158;28;20460;-71
2023/07/19 12:22:20;;;;;;;10.20;3.00;;;29.00;98.00;;;;;;5033279;28;20472;-71
2023/07/19 12:24:47;;;;;;;9.73;3.53;;;29.00;98.10;;;;;;5033695;28;20473;-72
2023/07/19 12:27:16;;;;;;;4.53;3.00;;;29.10;98.10;;;;;;5033320;28;20453;-72
2023/07/19 12:29:43;;;;;;;5.90;3.10;;;29.00;97.60;;;;;;5033107;28;20457;-72
2023/07/19 12:32:10;;;;;;;3.37;2.70;;;28.70;98.10;;;;;;5034254;28;20457;-72
2023/07/19 12:34:37;;;;;;;6.63;2.70;;;28.50;98.10;;;;;;5033289;28;20489;-71
2023/07/19 12:37:04;;;;;;;8.70;3.00;;;28.80;98.50;;;;;;5032570;28;20923;-71
2023/07/19 12:39:32;;;;;;;6.83;3.10;;;29.30;97.50;;;;;;5032561;28;20508;-72
2023/07/19 12:41:59;;;;;;;9.70;3.30;;;29.60;97.30;;;;;;5032427;28;20548;-72
2023/07/19 12:44:26;;;;;;;7.50;3.17;;;30.20;97.20;;;;;;5031097;28;20473;-72
2023/07/19 12:46:53;;;;;;;6.00;2.80;;;30.70;96.00;;;;;;5032256;28;20518;-72